Time;durP1;ratioP1;P1;durP2;ratioP2;P2;SDS_P1;SDS_P2;PMS_P1;PMS_P2;Temp;Humidity;BMP_temperature;BMP_pressure;BME280_temperature;BME280_humidity;BME280_pressure;Samples;Min_cycle;Max_cycle;Signal;HPM_P1;HPM_P2
2023/12/09 00:02:35;;;;;;;31.37;17.70;;;4.00;99.90;;;;;;10419043;28;20285;-79
2023/12/09 00:07:38;;;;;;;62.23;34.60;;;3.70;99.90;;;;;;10412356;28;20681;-79
2023/12/09 00:12:41;;;;;;;78.30;40.53;;;3.90;99.90;;;;;;10417222;28;20256;-79
2023/12/09 00:17:43;;;;;;;72.83;37.17;;;3.50;99.90;;;;;;10421459;28;20216;-79
2023/12/09 00:22:46;;;;;;;48.57;24.60;;;3.70;99.90;;;;;;10414243;28;20325;-79
2023/12/09 00:27:49;;;;;;;60.03;30.50;;;3.60;99.90;;;;;;10408506;28;20711;-79
2023/12/09 00:32:51;;;;;;;42.00;21.67;;;3.40;99.90;;;;;;10444758;28;20280;-79
2023/12/09 00:37:54;;;;;;;74.37;38.07;;;3.80;99.90;;;;;;10411944;28;20271;-79
2023/12/09 00:42:56;;;;;;;63.67;30.23;;;3.80;99.90;;;;;;10428499;28;20252;-79
2023/12/09 00:47:59;;;;;;;82.40;40.20;;;3.80;99.90;;;;;;10411382;28;20355;-79
2023/12/09 00:53:02;;;;;;;80.27;39.93;;;4.00;99.90;;;;;;10411652;28;20315;-79
2023/12/09 00:58:04;;;;;;;84.47;40.50;;;4.00;99.90;;;;;;10437406;28;20296;-79
2023/12/09 01:03:07;;;;;;;75.20;34.97;;;4.10;99.90;;;;;;10452525;28;20236;-79
2023/12/09 01:08:10;;;;;;;79.40;39.23;;;4.20;99.90;;;;;;10452124;28;20268;-79
2023/12/09 01:13:12;;;;;;;62.73;31.90;;;4.30;99.90;;;;;;10447820;28;20279;-79
2023/12/09 01:18:15;;;;;;;56.47;31.30;;;4.10;99.90;;;;;;10451758;28;20696;-79
2023/12/09 01:23:17;;;;;;;79.57;40.47;;;3.90;99.90;;;;;;10451473;28;20234;-79
2023/12/09 01:28:20;;;;;;;88.07;40.27;;;3.90;99.90;;;;;;10435063;28;20669;-79
2023/12/09 01:33:22;;;;;;;71.37;36.77;;;3.70;99.90;;;;;;10411216;28;20238;-79
2023/12/09 01:38:25;;;;;;;38.17;20.87;;;3.70;99.90;;;;;;10442796;28;20249;-79
2023/12/09 01:43:27;;;;;;;80.47;41.70;;;3.80;99.90;;;;;;10412920;28;20758;-79
2023/12/09 01:48:32;;;;;;;78.20;41.60;;;3.90;99.90;;;;;;10408773;28;20781;-79
2023/12/09 01:53:36;;;;;;;64.50;33.87;;;3.40;99.90;;;;;;10410373;28;20235;-79
2023/12/09 01:58:38;;;;;;;29.60;16.13;;;3.40;99.90;;;;;;10438205;28;20224;-79
2023/12/09 02:03:42;;;;;;;26.00;14.53;;;3.90;99.90;;;;;;10439046;28;20282;-79
2023/12/09 02:08:44;;;;;;;62.40;32.93;;;3.90;99.90;;;;;;10420452;28;20287;-79
2023/12/09 02:14:07;;;;;;;35.93;19.07;;;3.80;99.90;;;;;;10433156;28;20725;-79
2023/12/09 02:19:12;;;;;;;52.07;28.33;;;3.90;99.90;;;;;;10403986;28;20236;-79
2023/12/09 02:24:15;;;;;;;61.00;31.87;;;4.00;99.90;;;;;;10425484;28;20658;-79
2023/12/09 02:29:19;;;;;;;62.93;32.03;;;3.30;99.90;;;;;;10422694;28;20656;-79
2023/12/09 02:34:22;;;;;;;28.63;15.67;;;3.50;99.90;;;;;;10430811;28;20233;-79
2023/12/09 02:39:25;;;;;;;72.57;34.90;;;3.70;99.90;;;;;;10430139;28;20285;-79
2023/12/09 02:44:28;;;;;;;35.20;19.60;;;3.60;99.90;;;;;;10443976;28;20921;-79
2023/12/09 02:49:30;;;;;;;65.70;36.27;;;3.80;99.90;;;;;;10445376;28;20250;-79
2023/12/09 02:54:33;;;;;;;58.83;30.13;;;4.00;99.90;;;;;;10430432;28;20294;-79
2023/12/09 02:59:35;;;;;;;76.90;40.10;;;3.90;99.90;;;;;;10416889;28;20270;-79
2023/12/09 03:04:38;;;;;;;61.77;33.13;;;3.80;99.90;;;;;;10429752;28;20279;-79
2023/12/09 03:09:40;;;;;;;46.57;24.17;;;3.90;99.90;;;;;;10438344;28;20275;-79
2023/12/09 03:14:43;;;;;;;41.03;23.10;;;3.60;99.90;;;;;;10432050;28;20232;-79
2023/12/09 03:19:45;;;;;;;71.57;39.27;;;4.10;99.90;;;;;;10411852;28;20240;-79
2023/12/09 03:24:48;;;;;;;45.30;26.37;;;3.80;99.90;;;;;;10424174;28;20261;-79
2023/12/09 03:29:50;;;;;;;77.27;42.43;;;3.50;99.90;;;;;;10407109;28;20289;-79
2023/12/09 03:34:53;;;;;;;70.03;39.23;;;3.20;99.90;;;;;;10416708;28;20274;-79
2023/12/09 03:39:55;;;;;;;49.67;27.47;;;3.20;99.90;;;;;;10447183;28;20300;-79
2023/12/09 03:44:58;;;;;;;60.70;33.03;;;3.50;99.90;;;;;;10432490;28;20321;-79
2023/12/09 03:50:00;;;;;;;56.23;31.43;;;3.00;99.90;;;;;;10440325;28;20265;-79
2023/12/09 03:55:03;;;;;;;68.90;39.57;;;3.30;99.90;;;;;;10422080;28;20311;-79
2023/12/09 04:00:07;;;;;;;76.17;40.23;;;2.90;99.90;;;;;;10440807;28;20235;-79
2023/12/09 04:05:09;;;;;;;76.30;41.83;;;2.60;99.90;;;;;;10446799;28;20617;-79
2023/12/09 04:10:12;;;;;;;70.00;39.13;;;2.70;99.90;;;;;;10425933;28;20310;-79
2023/12/09 04:15:15;;;;;;;81.00;42.50;;;2.70;99.90;;;;;;10431373;28;20617;-79
2023/12/09 04:20:17;;;;;;;76.90;41.73;;;2.40;99.90;;;;;;10453101;28;20240;-79
2023/12/09 04:25:21;;;;;;;40.27;22.73;;;2.50;99.90;;;;;;10416468;28;20295;-79
2023/12/09 04:30:23;;;;;;;60.97;31.83;;;2.60;99.90;;;;;;10417112;28;20251;-79
2023/12/09 04:35:26;;;;;;;74.37;41.47;;;2.70;99.90;;;;;;10453211;28;20236;-79
2023/12/09 04:40:28;;;;;;;80.90;43.40;;;2.40;99.90;;;;;;10414550;28;20298;-79
2023/12/09 04:45:32;;;;;;;82.10;41.73;;;2.60;99.90;;;;;;10432702;28;20288;-79
2023/12/09 04:50:34;;;;;;;68.00;37.97;;;2.40;99.90;;;;;;10449369;28;20254;-79
2023/12/09 04:55:37;;;;;;;75.57;40.30;;;2.30;99.90;;;;;;10444531;28;20227;-79
2023/12/09 05:00:39;;;;;;;60.10;32.73;;;2.50;99.90;;;;;;10449738;28;20246;-79
2023/12/09 05:05:43;;;;;;;75.30;41.17;;;2.20;99.90;;;;;;10426641;28;20224;-79
2023/12/09 05:10:46;;;;;;;74.83;39.53;;;2.20;99.90;;;;;;10449143;28;20707;-79
2023/12/09 05:15:48;;;;;;;74.40;40.30;;;2.30;99.90;;;;;;10430916;28;20251;-79
2023/12/09 05:20:51;;;;;;;61.77;35.43;;;2.40;99.90;;;;;;10432793;28;20234;-79
2023/12/09 05:25:54;;;;;;;75.23;38.50;;;2.30;99.90;;;;;;10428682;28;20235;-79
2023/12/09 05:30:57;;;;;;;68.60;38.57;;;2.50;99.90;;;;;;10438833;28;20279;-79
2023/12/09 05:35:59;;;;;;;76.80;43.50;;;2.50;99.90;;;;;;10424264;28;20231;-79
2023/12/09 05:41:02;;;;;;;71.67;38.80;;;2.40;99.90;;;;;;10417970;28;20224;-79
2023/12/09 05:46:05;;;;;;;78.67;42.50;;;2.20;99.90;;;;;;10420153;28;20296;-79
2023/12/09 05:51:09;;;;;;;72.27;41.00;;;2.20;99.90;;;;;;10442939;28;20242;-79
2023/12/09 05:56:12;;;;;;;79.57;43.97;;;2.50;99.90;;;;;;10426706;28;20272;-79
2023/12/09 06:01:14;;;;;;;69.70;37.50;;;2.50;99.90;;;;;;10409829;28;20231;-79
2023/12/09 06:06:17;;;;;;;73.43;42.33;;;2.30;99.90;;;;;;10415235;28;20230;-79
2023/12/09 06:11:20;;;;;;;84.30;40.00;;;2.30;99.90;;;;;;10438766;28;20722;-79
2023/12/09 06:16:22;;;;;;;93.63;49.90;;;2.40;99.90;;;;;;10424055;28;20227;-79
2023/12/09 06:21:26;;;;;;;73.83;41.43;;;2.50;99.90;;;;;;10432668;28;20232;-79
2023/12/09 06:26:28;;;;;;;58.40;33.10;;;2.60;99.90;;;;;;10434095;28;20679;-79
2023/12/09 06:31:31;;;;;;;42.43;26.03;;;2.40;99.90;;;;;;10433126;28;20284;-79
2023/12/09 06:36:33;;;;;;;61.47;33.27;;;2.70;99.90;;;;;;10410835;28;20219;-79
2023/12/09 06:41:39;;;;;;;75.77;42.00;;;2.50;99.90;;;;;;10445595;28;20222;-79
2023/12/09 06:46:42;;;;;;;36.03;20.67;;;2.80;99.90;;;;;;10447053;28;20263;-80
2023/12/09 06:51:49;;;;;;;68.40;39.23;;;2.90;99.90;;;;;;10416238;28;20281;-79
2023/12/09 06:56:52;;;;;;;66.87;37.30;;;2.80;99.90;;;;;;10438403;28;20226;-80
2023/12/09 07:01:57;;;;;;;70.17;41.03;;;2.80;99.90;;;;;;10428777;28;20739;-80
2023/12/09 07:07:01;;;;;;;67.10;38.47;;;2.60;99.90;;;;;;10412111;28;20360;-80
2023/12/09 07:12:04;;;;;;;64.80;39.13;;;2.50;99.90;;;;;;10438156;28;20258;-79
2023/12/09 07:17:06;;;;;;;73.53;39.67;;;2.50;99.90;;;;;;10436719;28;20281;-79
2023/12/09 07:22:09;;;;;;;60.93;33.70;;;2.30;99.90;;;;;;10417650;28;20305;-79
2023/12/09 07:27:11;;;;;;;65.80;37.53;;;2.50;99.90;;;;;;10405826;28;20232;-79
2023/12/09 07:32:14;;;;;;;67.73;37.27;;;2.50;99.90;;;;;;10415193;28;20309;-79
2023/12/09 07:37:17;;;;;;;71.83;39.50;;;2.40;99.90;;;;;;10431144;28;20231;-79
2023/12/09 07:42:22;;;;;;;64.00;37.57;;;2.50;99.90;;;;;;10413812;28;20231;-79
2023/12/09 07:47:25;;;;;;;64.70;36.93;;;2.70;99.90;;;;;;10415739;28;20721;-79
2023/12/09 07:52:28;;;;;;;59.50;33.63;;;2.50;99.90;;;;;;10414711;28;20709;-79
2023/12/09 07:57:30;;;;;;;51.47;30.97;;;2.60;99.90;;;;;;10428777;28;20276;-79
2023/12/09 08:02:34;;;;;;;50.80;28.97;;;2.70;99.90;;;;;;10441989;28;20239;-79
2023/12/09 08:07:36;;;;;;;60.03;34.87;;;2.70;99.90;;;;;;10439864;28;20695;-79
2023/12/09 08:12:39;;;;;;;48.27;27.40;;;2.60;99.90;;;;;;10427936;28;20286;-79
2023/12/09 08:17:41;;;;;;;65.70;34.43;;;2.80;99.90;;;;;;10413181;28;20841;-79
2023/12/09 08:22:44;;;;;;;61.80;33.13;;;2.90;99.90;;;;;;10412866;28;20289;-79
2023/12/09 08:27:46;;;;;;;57.83;34.27;;;2.80;99.90;;;;;;10413230;28;20267;-80
2023/12/09 08:32:49;;;;;;;63.87;36.27;;;3.00;99.90;;;;;;10450461;28;20258;-79
2023/12/09 08:37:51;;;;;;;53.13;33.33;;;3.10;99.90;;;;;;10453478;28;20239;-79
2023/12/09 08:42:54;;;;;;;57.03;32.23;;;3.00;99.90;;;;;;10451833;28;20231;-80
2023/12/09 08:47:56;;;;;;;58.33;32.10;;;3.00;99.90;;;;;;10451889;28;20288;-80
2023/12/09 08:52:59;;;;;;;57.80;32.13;;;3.00;99.90;;;;;;10422478;28;20255;-79
2023/12/09 08:58:03;;;;;;;53.70;30.80;;;2.90;99.90;;;;;;10411806;28;20677;-80
2023/12/09 09:03:06;;;;;;;48.43;29.10;;;3.00;99.90;;;;;;10447041;28;20622;-80
2023/12/09 09:08:09;;;;;;;56.47;33.20;;;3.10;99.90;;;;;;10410705;28;20239;-80
2023/12/09 09:13:12;;;;;;;59.60;33.17;;;3.00;99.90;;;;;;10446862;28;20278;-80
2023/12/09 09:18:15;;;;;;;60.07;34.03;;;3.10;99.90;;;;;;10410050;28;20688;-79
2023/12/09 09:23:17;;;;;;;60.13;32.93;;;3.20;99.90;;;;;;10425462;28;20234;-79
2023/12/09 09:28:20;;;;;;;42.33;25.67;;;3.20;99.90;;;;;;10449872;28;20235;-79
2023/12/09 09:33:22;;;;;;;60.97;32.90;;;3.50;99.90;;;;;;10430711;28;20239;-79
2023/12/09 09:38:25;;;;;;;57.90;31.60;;;3.50;99.90;;;;;;10409618;28;20304;-80
2023/12/09 09:43:33;;;;;;;64.20;34.73;;;3.60;99.90;;;;;;10440316;28;20240;-80
2023/12/09 09:48:39;;;;;;;65.53;34.10;;;3.60;99.90;;;;;;10419872;28;20789;-80
2023/12/09 09:53:58;;;;;;;62.27;30.37;;;3.70;99.90;;;;;;10408506;28;20314;-79
2023/12/09 09:59:00;;;;;;;65.70;33.83;;;3.90;99.90;;;;;;10412256;28;20342;-79
2023/12/09 10:04:03;;;;;;;70.93;34.47;;;3.80;99.90;;;;;;10407591;28;20255;-80
2023/12/09 10:09:07;;;;;;;69.80;34.30;;;3.70;99.90;;;;;;10427594;28;20257;-80
2023/12/09 10:14:10;;;;;;;85.83;41.17;;;3.50;99.90;;;;;;10448561;28;20262;-80
2023/12/09 10:19:17;;;;;;;83.53;38.40;;;3.30;99.90;;;;;;10425973;28;20211;-80
2023/12/09 10:24:20;;;;;;;87.87;36.70;;;3.30;99.90;;;;;;10422472;28;20230;-79
2023/12/09 10:29:24;;;;;;;66.40;32.17;;;3.20;99.90;;;;;;10449658;28;20238;-79
2023/12/09 10:34:26;;;;;;;75.33;39.13;;;3.30;99.90;;;;;;10447002;28;20284;-80
2023/12/09 10:39:29;;;;;;;91.60;42.00;;;3.50;99.90;;;;;;10437995;28;20220;-80
2023/12/09 10:44:32;;;;;;;90.50;45.60;;;3.50;99.90;;;;;;10411758;28;20231;-79
2023/12/09 10:49:35;;;;;;;81.40;41.33;;;3.70;99.90;;;;;;10393986;28;20285;-79
2023/12/09 10:54:38;;;;;;;73.47;36.60;;;3.60;99.90;;;;;;10429819;28;20713;-80
2023/12/09 10:59:43;;;;;;;75.73;37.90;;;3.60;99.90;;;;;;10407509;28;20231;-80
2023/12/09 11:04:46;;;;;;;69.10;36.37;;;3.70;99.90;;;;;;10411279;28;20275;-80
2023/12/09 11:09:49;;;;;;;58.87;31.13;;;3.80;99.90;;;;;;10446043;28;20227;-79
2023/12/09 11:14:51;;;;;;;68.63;34.43;;;3.80;99.90;;;;;;10456627;28;20270;-80
2023/12/09 11:19:54;;;;;;;63.87;36.13;;;3.70;99.90;;;;;;10456830;28;20260;-79
2023/12/09 11:24:57;;;;;;;70.73;36.60;;;3.70;99.90;;;;;;10456958;28;20239;-79
2023/12/09 11:29:59;;;;;;;74.67;38.87;;;3.80;99.90;;;;;;10448552;28;20226;-79
2023/12/09 11:35:04;;;;;;;76.20;39.00;;;3.80;99.90;;;;;;10455693;28;20258;-79
2023/12/09 11:40:07;;;;;;;82.30;40.70;;;3.90;99.90;;;;;;10456352;28;20199;-79
2023/12/09 11:45:10;;;;;;;82.30;42.73;;;3.90;99.90;;;;;;10455038;28;20284;-80
2023/12/09 11:50:15;;;;;;;65.27;36.00;;;3.90;99.90;;;;;;10425731;28;20235;-79
2023/12/09 11:55:19;;;;;;;64.30;34.37;;;3.90;99.90;;;;;;10414291;28;20322;-79
2023/12/09 12:00:22;;;;;;;62.87;33.37;;;3.20;99.90;;;;;;10414157;28;20235;-79
2023/12/09 12:05:24;;;;;;;54.50;32.50;;;4.10;99.90;;;;;;10413910;28;20693;-79
2023/12/09 12:10:27;;;;;;;59.00;33.33;;;4.20;99.90;;;;;;10446504;28;20234;-79
2023/12/09 12:15:30;;;;;;;57.03;32.77;;;4.10;99.90;;;;;;10452808;28;20307;-79
2023/12/09 12:20:32;;;;;;;51.50;31.67;;;4.00;99.90;;;;;;10436011;28;20289;-80
2023/12/09 12:25:36;;;;;;;48.47;30.20;;;4.00;99.90;;;;;;10412339;28;20239;-79
2023/12/09 12:30:38;;;;;;;53.40;35.57;;;3.90;99.90;;;;;;10448668;28;20280;-80
2023/12/09 12:35:41;;;;;;;49.20;30.43;;;3.70;99.90;;;;;;10453002;28;20254;-80
2023/12/09 12:40:43;;;;;;;50.43;30.93;;;3.70;99.90;;;;;;10453808;28;20231;-81
2023/12/09 12:45:50;;;;;;;57.03;34.20;;;3.70;99.90;;;;;;10452553;28;20266;-80
2023/12/09 12:50:53;;;;;;;60.87;32.63;;;3.60;99.90;;;;;;10453058;28;20223;-80
2023/12/09 12:55:56;;;;;;;54.20;31.17;;;3.70;99.90;;;;;;10423266;28;20285;-80
2023/12/09 13:00:58;;;;;;;55.20;32.53;;;3.80;99.90;;;;;;10432994;28;20288;-80
2023/12/09 13:06:01;;;;;;;42.50;27.70;;;3.80;99.90;;;;;;10440393;28;20203;-80
2023/12/09 13:11:04;;;;;;;49.10;30.70;;;3.80;99.90;;;;;;10418061;28;20669;-80
2023/12/09 13:16:08;;;;;;;51.90;28.53;;;3.80;99.90;;;;;;10411783;28;20289;-80
2023/12/09 13:21:11;;;;;;;52.07;33.77;;;3.90;99.90;;;;;;10435630;28;20280;-79
2023/12/09 13:26:13;;;;;;;50.50;29.33;;;4.00;99.90;;;;;;10451317;28;20227;-79
2023/12/09 13:31:16;;;;;;;46.60;28.60;;;3.50;99.90;;;;;;10451469;28;20238;-79
2023/12/09 13:36:19;;;;;;;45.13;28.37;;;3.40;99.90;;;;;;10451824;28;20280;-79
2023/12/09 13:41:22;;;;;;;43.90;27.77;;;3.40;99.90;;;;;;10433999;28;20231;-79
2023/12/09 13:46:25;;;;;;;42.13;24.90;;;3.50;99.90;;;;;;10411164;28;20263;-79
2023/12/09 13:51:28;;;;;;;45.90;28.03;;;3.50;99.90;;;;;;10410569;28;20808;-79
2023/12/09 13:56:31;;;;;;;43.60;27.30;;;3.70;99.90;;;;;;10409440;28;20296;-79
2023/12/09 14:01:33;;;;;;;51.00;29.73;;;3.70;99.90;;;;;;10428426;28;20681;-79
2023/12/09 14:06:36;;;;;;;50.53;28.43;;;3.90;99.90;;;;;;10422356;28;20224;-79
2023/12/09 14:11:38;;;;;;;43.03;26.13;;;4.10;99.90;;;;;;10409446;28;20254;-79
2023/12/09 14:16:42;;;;;;;49.27;30.93;;;4.00;99.90;;;;;;10402171;28;20236;-79
2023/12/09 14:21:45;;;;;;;46.70;29.37;;;4.20;99.90;;;;;;10407963;28;20692;-80
2023/12/09 14:26:48;;;;;;;44.57;28.03;;;4.10;99.90;;;;;;10407144;28;20235;-79
2023/12/09 14:31:51;;;;;;;45.43;29.20;;;3.80;99.90;;;;;;10408575;28;20259;-79
2023/12/09 14:36:54;;;;;;;44.17;27.37;;;3.70;99.90;;;;;;10408390;28;20727;-80
2023/12/09 14:41:56;;;;;;;35.43;23.57;;;3.50;99.90;;;;;;10434848;28;20238;-80
2023/12/09 14:47:00;;;;;;;41.63;26.47;;;3.60;99.90;;;;;;10448450;28;20239;-79
2023/12/09 14:52:04;;;;;;;45.90;27.70;;;3.70;99.90;;;;;;10448995;28;20742;-79
2023/12/09 14:57:07;;;;;;;49.23;31.50;;;3.80;99.90;;;;;;10407808;28;20236;-79
2023/12/09 15:02:10;;;;;;;54.10;33.77;;;3.60;99.90;;;;;;10399923;28;20247;-79
2023/12/09 15:07:12;;;;;;;61.93;34.93;;;3.40;99.90;;;;;;10410274;28;20218;-79
2023/12/09 15:12:15;;;;;;;148.23;75.77;;;3.30;99.90;;;;;;10404853;28;20659;-79
2023/12/09 15:17:18;;;;;;;86.97;53.47;;;4.30;99.90;;;;;;10405435;28;20251;-80
2023/12/09 15:22:21;;;;;;;88.43;51.00;;;4.00;99.90;;;;;;10406727;28;20695;-79
2023/12/09 15:27:24;;;;;;;66.47;38.33;;;3.60;99.90;;;;;;10406456;28;20236;-79
2023/12/09 15:32:26;;;;;;;82.20;51.93;;;3.40;99.90;;;;;;10404780;28;20251;-79
2023/12/09 15:37:29;;;;;;;64.77;40.97;;;3.20;99.90;;;;;;10422225;28;20224;-79
2023/12/09 15:42:32;;;;;;;49.30;28.97;;;3.20;99.90;;;;;;10405061;28;21040;-79
2023/12/09 15:47:34;;;;;;;55.33;32.50;;;3.30;99.90;;;;;;10364832;28;20660;-79
2023/12/09 15:52:37;;;;;;;51.43;31.73;;;3.50;99.90;;;;;;10369512;28;20640;-79
2023/12/09 15:57:40;;;;;;;50.07;30.27;;;3.50;99.90;;;;;;10373800;28;20280;-79
2023/12/09 16:02:42;;;;;;;48.47;30.10;;;3.60;99.90;;;;;;10387917;28;20262;-79
2023/12/09 16:07:45;;;;;;;45.00;26.30;;;4.00;99.90;;;;;;10443802;28;20705;-80
2023/12/09 16:12:48;;;;;;;46.00;30.47;;;4.20;99.90;;;;;;10454016;28;20336;-79
2023/12/09 16:17:50;;;;;;;46.40;29.07;;;3.90;99.90;;;;;;10454435;28;20240;-79
2023/12/09 16:22:55;;;;;;;45.50;26.57;;;3.80;99.90;;;;;;10454449;28;20234;-79
2023/12/09 16:27:57;;;;;;;41.27;27.77;;;3.70;99.90;;;;;;10423543;28;20609;-78
2023/12/09 16:33:00;;;;;;;40.87;27.80;;;3.30;99.90;;;;;;10411961;28;21013;-79
2023/12/09 16:38:03;;;;;;;42.47;27.30;;;3.20;99.90;;;;;;10413111;28;20262;-79
2023/12/09 16:43:07;;;;;;;45.27;28.30;;;3.20;99.90;;;;;;10425293;28;20229;-80
2023/12/09 16:48:09;;;;;;;48.07;32.57;;;3.40;99.90;;;;;;10444369;28;20329;-79
2023/12/09 16:53:18;;;;;;;47.27;31.10;;;3.40;99.90;;;;;;10415472;28;20263;-79
2023/12/09 16:58:20;;;;;;;44.53;28.37;;;3.30;99.90;;;;;;10441846;28;20277;-80
2023/12/09 17:03:23;;;;;;;42.30;27.27;;;3.20;99.90;;;;;;10452603;28;20230;-79
2023/12/09 17:08:26;;;;;;;33.07;21.00;;;3.50;99.90;;;;;;10419148;28;20660;-79
2023/12/09 17:13:33;;;;;;;51.73;31.50;;;4.00;99.90;;;;;;10391945;28;20252;-79
2023/12/09 17:18:36;;;;;;;44.13;27.40;;;4.20;99.90;;;;;;10425736;28;20274;-78
2023/12/09 17:23:39;;;;;;;62.10;39.60;;;4.00;99.90;;;;;;10430171;28;20269;-79
2023/12/09 17:28:43;;;;;;;43.83;28.60;;;3.70;99.90;;;;;;10412819;28;20348;-79
2023/12/09 17:33:46;;;;;;;45.17;28.50;;;3.80;99.90;;;;;;10421685;28;20304;-79
2023/12/09 17:38:49;;;;;;;28.10;18.03;;;3.50;99.90;;;;;;10424307;28;20750;-79
2023/12/09 17:43:51;;;;;;;28.07;17.17;;;3.90;99.90;;;;;;10410318;28;20224;-79
2023/12/09 17:48:54;;;;;;;34.63;22.33;;;4.40;99.90;;;;;;10424265;28;20629;-80
2023/12/09 17:53:57;;;;;;;52.27;29.83;;;4.70;99.90;;;;;;10412309;28;20640;-79
2023/12/09 17:59:00;;;;;;;32.07;20.57;;;4.90;99.90;;;;;;10411223;28;20291;-79
2023/12/09 18:04:03;;;;;;;55.10;32.40;;;5.10;99.90;;;;;;10409603;28;20286;-79
2023/12/09 18:09:05;;;;;;;46.73;28.07;;;4.90;99.90;;;;;;10412917;28;20293;-79
2023/12/09 18:14:08;;;;;;;53.33;30.43;;;4.70;99.90;;;;;;10403575;28;20255;-79
2023/12/09 18:19:11;;;;;;;37.87;24.17;;;4.40;99.90;;;;;;10379202;28;20224;-79
2023/12/09 18:24:13;;;;;;;46.93;26.77;;;4.10;99.90;;;;;;10432549;28;20284;-79
2023/12/09 18:29:16;;;;;;;50.60;25.93;;;4.10;99.90;;;;;;10431339;28;20282;-79
2023/12/09 18:34:18;;;;;;;54.60;30.30;;;4.30;99.90;;;;;;10407800;28;20322;-79
2023/12/09 18:39:22;;;;;;;77.07;41.37;;;4.70;99.90;;;;;;10422051;28;20281;-79
2023/12/09 18:44:25;;;;;;;50.27;29.90;;;4.40;99.90;;;;;;10410485;28;20233;-79
2023/12/09 18:49:28;;;;;;;65.63;39.13;;;4.60;99.90;;;;;;10406571;28;20260;-79
2023/12/09 18:54:31;;;;;;;62.03;34.67;;;4.20;99.90;;;;;;10369438;28;20253;-79
2023/12/09 18:59:33;;;;;;;61.00;32.27;;;3.90;99.90;;;;;;10372716;28;20279;-79
2023/12/09 19:04:36;;;;;;;54.93;32.87;;;5.20;99.90;;;;;;10381932;28;20260;-79
2023/12/09 19:09:45;;;;;;;71.47;39.80;;;4.60;99.90;;;;;;10376018;28;20667;-79
2023/12/09 19:14:47;;;;;;;68.70;39.83;;;4.00;99.90;;;;;;10018482;28;10000337;-79
2023/12/09 19:19:50;;;;;;;56.93;34.37;;;3.70;99.90;;;;;;10395968;28;20242;-79
2023/12/09 19:24:52;;;;;;;57.93;32.07;;;3.80;99.90;;;;;;10352126;28;20259;-79
2023/12/09 19:29:55;;;;;;;38.60;22.53;;;3.90;99.90;;;;;;10393049;28;20230;-79
2023/12/09 19:34:58;;;;;;;62.47;35.57;;;4.00;99.90;;;;;;10413152;28;20289;-79
2023/12/09 19:40:02;;;;;;;65.30;37.47;;;5.10;99.90;;;;;;10411889;28;20286;-79
2023/12/09 19:45:05;;;;;;;65.67;38.00;;;4.80;99.90;;;;;;10411285;28;20664;-79
2023/12/09 19:50:09;;;;;;;50.27;27.90;;;4.70;99.90;;;;;;10412462;28;20248;-79
2023/12/09 19:55:12;;;;;;;64.17;35.63;;;4.90;99.90;;;;;;10411447;28;20921;-79
2023/12/09 20:00:15;;;;;;;48.27;26.87;;;5.10;99.90;;;;;;10411049;28;20237;-79
2023/12/09 20:05:18;;;;;;;37.37;23.00;;;5.10;99.90;;;;;;10411318;28;20715;-79
2023/12/09 20:10:20;;;;;;;48.83;29.43;;;5.10;99.90;;;;;;10409156;28;20233;-79
2023/12/09 20:15:26;;;;;;;40.53;19.77;;;4.90;99.90;;;;;;10389362;28;20262;-78
2023/12/09 20:20:30;;;;;;;37.57;22.07;;;5.70;99.90;;;;;;10409357;28;20234;-78
2023/12/09 20:25:33;;;;;;;39.20;22.97;;;6.10;99.90;;;;;;10410553;28;20255;-79
2023/12/09 20:30:37;;;;;;;50.17;28.97;;;5.90;99.90;;;;;;10411608;28;20622;-78
2023/12/09 20:35:40;;;;;;;46.10;26.03;;;5.80;99.90;;;;;;10409381;28;20270;-79
2023/12/09 20:40:43;;;;;;;35.77;19.83;;;5.90;99.90;;;;;;10409260;28;20237;-79
2023/12/09 20:45:46;;;;;;;46.37;28.87;;;5.80;99.90;;;;;;10410268;28;20672;-79
2023/12/09 20:50:49;;;;;;;37.30;21.40;;;6.10;99.90;;;;;;10410691;28;20304;-79
2023/12/09 20:55:52;;;;;;;41.50;23.97;;;6.00;99.90;;;;;;10410535;28;20313;-79
2023/12/09 21:00:55;;;;;;;30.10;18.20;;;6.10;99.90;;;;;;10408925;28;20235;-78
2023/12/09 21:05:59;;;;;;;46.40;25.93;;;6.30;99.90;;;;;;10410397;28;20241;-78
2023/12/09 21:11:01;;;;;;;48.40;27.80;;;6.50;99.90;;;;;;10404783;28;20881;-78
2023/12/09 21:16:04;;;;;;;34.67;21.07;;;6.10;99.90;;;;;;10378766;28;20242;-78
2023/12/09 21:21:07;;;;;;;33.00;20.40;;;5.60;99.90;;;;;;10365052;28;20238;-80
2023/12/09 21:26:10;;;;;;;42.83;25.80;;;5.80;99.90;;;;;;10399055;28;20641;-79
2023/12/09 21:31:13;;;;;;;36.47;20.90;;;5.60;99.90;;;;;;10381981;28;20236;-79
2023/12/09 21:36:16;;;;;;;31.43;19.30;;;5.90;99.90;;;;;;10334706;28;20254;-80
2023/12/09 21:41:20;;;;;;;28.50;16.77;;;5.70;99.90;;;;;;10353717;28;20289;-80
2023/12/09 21:46:24;;;;;;;26.67;16.83;;;5.90;99.90;;;;;;10367267;28;20323;-79
2023/12/09 21:51:27;;;;;;;33.47;20.50;;;5.50;99.90;;;;;;10366170;28;20248;-79
2023/12/09 21:56:30;;;;;;;49.77;28.40;;;5.70;99.90;;;;;;10355581;28;20313;-80
2023/12/09 22:01:35;;;;;;;43.43;24.40;;;5.70;99.90;;;;;;10359720;28;20227;-79
2023/12/09 22:06:38;;;;;;;60.43;31.67;;;5.80;99.90;;;;;;10327170;28;20303;-80
2023/12/09 22:11:41;;;;;;;37.20;19.80;;;5.60;99.90;;;;;;10331668;28;20958;-80
2023/12/09 22:16:44;;;;;;;51.53;29.03;;;5.70;99.90;;;;;;10337248;28;20246;-79
2023/12/09 22:21:46;;;;;;;35.27;19.63;;;5.20;99.90;;;;;;10360219;28;20230;-80
2023/12/09 22:26:49;;;;;;;43.60;26.53;;;5.20;99.90;;;;;;10326576;28;20236;-79
2023/12/09 22:31:52;;;;;;;35.73;20.00;;;5.30;99.90;;;;;;10360082;28;20291;-80
2023/12/09 22:36:54;;;;;;;29.63;16.00;;;5.60;99.90;;;;;;10365886;28;20273;-80
2023/12/09 22:41:57;;;;;;;43.03;24.80;;;5.80;99.90;;;;;;10365585;28;20309;-80
2023/12/09 22:47:00;;;;;;;36.70;23.37;;;6.30;99.90;;;;;;10366765;28;20267;-80
2023/12/09 22:52:03;;;;;;;40.50;24.03;;;6.20;99.90;;;;;;10339677;28;20278;-80
2023/12/09 22:57:08;;;;;;;39.63;24.93;;;5.90;99.90;;;;;;10367175;28;20640;-80
2023/12/09 23:02:11;;;;;;;29.70;19.13;;;5.70;99.90;;;;;;10358874;28;20295;-80
2023/12/09 23:07:14;;;;;;;40.50;24.53;;;5.70;99.90;;;;;;10344159;28;20247;-80
2023/12/09 23:12:16;;;;;;;28.87;16.07;;;5.60;99.90;;;;;;10337262;28;20246;-80
2023/12/09 23:17:19;;;;;;;34.03;20.07;;;5.90;99.90;;;;;;10359060;28;20245;-79
2023/12/09 23:22:22;;;;;;;45.57;27.30;;;6.20;99.90;;;;;;10350497;28;20239;-80
2023/12/09 23:27:25;;;;;;;43.80;25.07;;;6.10;99.90;;;;;;10340832;28;20302;-80
2023/12/09 23:32:27;;;;;;;31.97;18.33;;;5.90;99.90;;;;;;10385617;28;20237;-80
2023/12/09 23:37:30;;;;;;;33.63;17.23;;;6.20;99.90;;;;;;10378599;28;20305;-79
2023/12/09 23:42:33;;;;;;;47.93;26.37;;;5.90;99.90;;;;;;10365768;28;20673;-79
2023/12/09 23:47:35;;;;;;;38.53;20.63;;;5.90;99.90;;;;;;10354883;28;20298;-79
2023/12/09 23:52:38;;;;;;;35.80;19.53;;;6.00;99.90;;;;;;10337012;28;20754;-79
2023/12/09 23:57:41;;;;;;;38.53;23.50;;;5.70;99.90;;;;;;10327389;28;20661;-79
